Terminal Aerodrome Forecast
Issued by NWS Charleston, SC

Home | Current Version | Previous Version | Text Only | Print | Product List | Glossary On
Versions: 1 2 3 4 5 6 7 8 9 10 11 12
119
FTUS42 KCHS 271736
TAFSAV
TAF
KSAV 271736Z 2718/2818 10012G18KT P6SM SCT040
     FM280100 04004KT P6SM SKC
     FM281500 07010KT P6SM SCT035=

USA.gov is the U.S. government's official web portal to all federal, state and local government web resources and services.